createdAt,value
2019-05-28T00:00:42.231Z,999.90
2019-05-28T00:01:42.207Z,999.89
2019-05-28T00:02:42.215Z,999.87
2019-05-28T00:03:42.269Z,999.91
2019-05-28T00:04:42.175Z,999.93
2019-05-28T00:05:42.173Z,999.90
2019-05-28T00:06:42.169Z,999.90
2019-05-28T00:07:42.143Z,999.87
2019-05-28T00:08:42.133Z,999.88
2019-05-28T00:09:42.140Z,999.83
2019-05-28T00:10:42.101Z,999.87
2019-05-28T00:11:42.108Z,999.89
2019-05-28T00:12:42.083Z,999.88
2019-05-28T00:13:42.078Z,999.85
2019-05-28T00:14:42.082Z,999.87
2019-05-28T00:15:42.048Z,999.84
2019-05-28T00:16:42.043Z,999.83
2019-05-28T00:17:42.392Z,999.86
2019-05-28T00:18:42.014Z,999.83
2019-05-28T00:19:42.023Z,999.86
2019-05-28T00:20:42.008Z,999.81
2019-05-28T00:21:41.995Z,999.82
2019-05-28T00:22:41.991Z,999.77
2019-05-28T00:23:41.966Z,999.78
2019-05-28T00:24:41.997Z,999.79
2019-05-28T00:25:41.949Z,999.77
2019-05-28T00:26:41.923Z,999.74
2019-05-28T00:27:41.921Z,999.72
2019-05-28T00:28:41.930Z,999.70
2019-05-28T00:29:41.892Z,999.68
2019-05-28T00:30:41.895Z,999.71
2019-05-28T00:31:41.880Z,999.69
2019-05-28T00:32:41.874Z,999.67
2019-05-28T00:33:41.866Z,999.65
2019-05-28T00:34:41.855Z,999.66
2019-05-28T00:35:41.831Z,999.62
2019-05-28T00:36:41.823Z,999.63
2019-05-28T00:37:41.835Z,999.59
2019-05-28T00:38:41.808Z,999.60
2019-05-28T00:39:41.798Z,999.63
2019-05-28T00:40:41.772Z,999.61
2019-05-28T00:41:41.760Z,999.63
2019-05-28T00:42:41.755Z,999.63
2019-05-28T00:43:41.771Z,999.70
2019-05-28T00:44:41.737Z,999.71
2019-05-28T00:45:41.714Z,999.74
2019-05-28T00:46:41.715Z,999.71
2019-05-28T00:47:41.689Z,999.74
2019-05-28T00:48:41.963Z,999.74
2019-05-28T00:49:41.691Z,999.72
2019-05-28T00:50:41.666Z,999.75
2019-05-28T00:51:41.661Z,999.73
2019-05-28T00:52:41.639Z,999.68
2019-05-28T00:53:41.633Z,999.68
2019-05-28T00:54:41.646Z,999.64
2019-05-28T00:55:41.633Z,999.67
2019-05-28T00:56:41.624Z,999.65
2019-05-28T00:57:41.589Z,999.61
2019-05-28T00:58:41.578Z,999.61
2019-05-28T00:59:41.561Z,999.57
2019-05-28T01:00:41.563Z,999.54
2019-05-28T01:01:41.545Z,999.57
2019-05-28T01:02:41.539Z,999.61
2019-05-28T01:03:41.519Z,999.62
2019-05-28T01:04:41.529Z,999.59
2019-05-28T01:05:41.490Z,999.58
2019-05-28T01:06:41.490Z,999.61
2019-05-28T01:07:41.485Z,999.65
2019-05-28T01:08:41.462Z,999.61
2019-05-28T01:09:41.470Z,999.62
2019-05-28T01:10:41.443Z,999.60
2019-05-28T01:11:41.462Z,999.60
2019-05-28T01:12:41.443Z,999.58
2019-05-28T01:13:41.406Z,999.55
2019-05-28T01:14:41.392Z,999.57
2019-05-28T01:15:41.405Z,999.58
2019-05-28T01:16:41.379Z,999.54
2019-05-28T01:17:41.629Z,999.55
2019-05-28T01:18:41.365Z,999.53
2019-05-28T01:19:41.332Z,999.53
2019-05-28T01:20:41.329Z,999.49
2019-05-28T01:21:42.679Z,999.51
2019-05-28T01:22:41.331Z,999.50
2019-05-28T01:23:41.290Z,999.45
2019-05-28T01:24:41.278Z,999.49
2019-05-28T01:25:41.265Z,999.49
2019-05-28T01:26:41.253Z,999.48
2019-05-28T01:27:41.241Z,999.46
2019-05-28T01:28:41.254Z,999.47
2019-05-28T01:29:41.233Z,999.49
2019-05-28T01:30:54.893Z,999.47
2019-05-28T01:31:42.218Z,999.50
2019-05-28T01:32:41.188Z,999.47
2019-05-28T01:33:41.191Z,999.52
2019-05-28T01:34:41.167Z,999.49
2019-05-28T01:35:41.156Z,999.49
2019-05-28T01:36:41.152Z,999.49
2019-05-28T01:37:41.154Z,999.51
2019-05-28T01:38:41.160Z,999.49
2019-05-28T01:39:41.116Z,999.44
2019-05-28T01:40:41.127Z,999.52
2019-05-28T01:41:41.086Z,999.51
2019-05-28T01:42:41.092Z,999.54
2019-05-28T01:43:41.070Z,999.54
2019-05-28T01:44:41.058Z,999.53
2019-05-28T01:45:41.097Z,999.52
2019-05-28T01:46:41.044Z,999.50
2019-05-28T01:47:41.027Z,999.51
2019-05-28T01:48:41.016Z,999.48
2019-05-28T01:49:41.003Z,999.47
2019-05-28T01:50:40.990Z,999.50
2019-05-28T01:51:41.030Z,999.52
2019-05-28T01:52:40.965Z,999.53
2019-05-28T01:53:40.948Z,999.50
2019-05-28T01:54:40.947Z,999.55
2019-05-28T01:55:40.931Z,999.54
2019-05-28T01:56:40.967Z,999.54
2019-05-28T01:57:40.919Z,999.54
2019-05-28T01:58:40.899Z,999.54
2019-05-28T01:59:40.886Z,999.55
2019-05-28T02:00:40.872Z,999.54
2019-05-28T02:01:40.886Z,999.53
2019-05-28T02:02:40.895Z,999.56
2019-05-28T02:03:40.842Z,999.56
2019-05-28T02:04:40.841Z,999.61
2019-05-28T02:05:40.819Z,999.59
2019-05-28T02:06:40.831Z,999.60
2019-05-28T02:07:40.803Z,999.58
2019-05-28T02:08:40.816Z,999.59
2019-05-28T02:09:40.789Z,999.55
2019-05-28T02:10:40.766Z,999.55
2019-05-28T02:11:40.760Z,999.57
2019-05-28T02:12:40.816Z,999.55
2019-05-28T02:13:40.739Z,999.59
2019-05-28T02:14:40.752Z,999.58
2019-05-28T02:15:40.714Z,999.59
2019-05-28T02:16:40.725Z,999.56
2019-05-28T02:17:40.687Z,999.57
2019-05-28T02:18:40.675Z,999.58
2019-05-28T02:19:40.931Z,999.59
2019-05-28T02:20:40.668Z,999.59
2019-05-28T02:21:40.642Z,999.57
2019-05-28T02:22:40.635Z,999.57
2019-05-28T02:23:40.613Z,999.55
2019-05-28T02:24:40.624Z,999.57
2019-05-28T02:25:40.597Z,999.55
2019-05-28T02:26:40.593Z,999.57
2019-05-28T02:27:40.572Z,999.60
2019-05-28T02:28:40.580Z,999.57
2019-05-28T02:29:40.633Z,999.55
2019-05-28T02:30:40.559Z,999.54
2019-05-28T02:31:40.533Z,999.58
2019-05-28T02:32:40.522Z,999.55
2019-05-28T02:33:40.515Z,999.55
2019-05-28T02:34:40.508Z,999.57
2019-05-28T02:35:40.525Z,999.55
2019-05-28T02:36:40.474Z,999.57
2019-05-28T02:37:40.470Z,999.53
2019-05-28T02:38:40.458Z,999.57
2019-05-28T02:39:40.441Z,999.56
2019-05-28T02:40:40.434Z,999.56
2019-05-28T02:41:40.450Z,999.53
2019-05-28T02:42:40.415Z,999.59
2019-05-28T02:43:40.419Z,999.56
2019-05-28T02:44:40.385Z,999.53
2019-05-28T02:45:40.371Z,999.60
2019-05-28T02:46:40.519Z,999.57
2019-05-28T02:47:40.355Z,999.59
2019-05-28T02:48:40.344Z,999.58
2019-05-28T02:49:40.326Z,999.56
2019-05-28T02:50:40.319Z,999.58
2019-05-28T02:51:40.311Z,999.57
2019-05-28T02:52:40.316Z,999.59
2019-05-28T02:53:40.293Z,999.58
2019-05-28T02:54:40.306Z,999.60
2019-05-28T02:55:40.273Z,999.60
2019-05-28T02:56:40.252Z,999.61
2019-05-28T02:57:40.259Z,999.61
2019-05-28T02:58:40.270Z,999.61
2019-05-28T02:59:40.216Z,999.60
2019-05-28T03:00:40.223Z,999.62
2019-05-28T03:01:44.065Z,999.63
2019-05-28T03:02:40.187Z,999.62
2019-05-28T03:03:40.197Z,999.56
2019-05-28T03:04:40.177Z,999.56
2019-05-28T03:05:40.165Z,999.55
2019-05-28T03:06:40.166Z,999.56
2019-05-28T03:07:40.129Z,999.55
2019-05-28T03:08:40.124Z,999.59
2019-05-28T03:09:40.134Z,999.60
2019-05-28T03:11:01.562Z,999.63
2019-05-28T03:11:41.082Z,999.61
2019-05-28T03:12:40.078Z,999.62
2019-05-28T03:13:40.071Z,999.63
2019-05-28T03:14:40.056Z,999.64
2019-05-28T03:15:40.070Z,999.63
2019-05-28T03:16:40.040Z,999.61
2019-05-28T03:17:40.018Z,999.61
2019-05-28T03:18:40.004Z,999.62
2019-05-28T03:19:40.010Z,999.62
2019-05-28T03:20:40.057Z,999.61
2019-05-28T03:21:39.978Z,999.60
2019-05-28T03:22:39.982Z,999.60
2019-05-28T03:23:39.956Z,999.57
2019-05-28T03:24:39.938Z,999.59
2019-05-28T03:25:39.990Z,999.58
2019-05-28T03:26:39.956Z,999.62
2019-05-28T03:27:39.908Z,999.57
2019-05-28T03:28:39.902Z,999.61
2019-05-28T03:29:39.886Z,999.62
2019-05-28T03:30:39.886Z,999.66
2019-05-28T03:31:39.869Z,999.60
2019-05-28T03:32:39.884Z,999.62
2019-05-28T03:33:39.877Z,999.63
2019-05-28T03:34:42.099Z,999.63
2019-05-28T03:35:39.829Z,999.61
2019-05-28T03:36:39.815Z,999.63
2019-05-28T03:37:39.820Z,999.70
2019-05-28T03:38:39.792Z,999.71
2019-05-28T03:39:39.781Z,999.70
2019-05-28T03:40:39.782Z,999.66
2019-05-28T03:41:39.767Z,999.67
2019-05-28T03:42:39.817Z,999.64
2019-05-28T03:43:39.746Z,999.68
2019-05-28T03:44:39.726Z,999.65
2019-05-28T03:45:39.718Z,999.61
2019-05-28T03:46:39.711Z,999.62
2019-05-28T03:47:39.728Z,999.65
2019-05-28T03:48:39.709Z,999.66
2019-05-28T03:49:39.690Z,999.64
2019-05-28T03:50:39.659Z,999.63
2019-05-28T03:51:39.656Z,999.61
2019-05-28T03:52:39.655Z,999.63
2019-05-28T03:53:39.656Z,999.60
2019-05-28T03:54:39.622Z,999.58
2019-05-28T03:55:39.610Z,999.60
2019-05-28T03:56:39.590Z,999.61
2019-05-28T03:57:39.593Z,999.59
2019-05-28T03:58:39.581Z,999.58
2019-05-28T03:59:39.561Z,999.60
2019-05-28T04:00:39.570Z,999.60
2019-05-28T04:01:39.586Z,999.61
2019-05-28T04:02:39.518Z,999.59
2019-05-28T04:03:39.524Z,999.61
2019-05-28T04:04:39.493Z,999.59
2019-05-28T04:05:39.524Z,999.63
2019-05-28T04:06:39.474Z,999.69
2019-05-28T04:07:39.471Z,999.66
2019-05-28T04:08:39.520Z,999.65
2019-05-28T04:09:39.447Z,999.68
2019-05-28T04:10:39.423Z,999.67
2019-05-28T04:11:44.875Z,999.69
2019-05-28T04:12:40.403Z,999.66
2019-05-28T04:13:39.391Z,999.62
2019-05-28T04:14:39.396Z,999.61
2019-05-28T04:15:39.368Z,999.60
2019-05-28T04:16:39.357Z,999.61
2019-05-28T04:17:39.352Z,999.62
2019-05-28T04:18:39.471Z,999.63
2019-05-28T04:19:39.370Z,999.62
2019-05-28T04:20:39.320Z,999.63
2019-05-28T04:21:39.308Z,999.61
2019-05-28T04:22:39.292Z,999.64
2019-05-28T04:23:41.808Z,999.64
2019-05-28T04:24:39.273Z,999.66
2019-05-28T04:25:39.260Z,999.64
2019-05-28T04:26:39.244Z,999.64
2019-05-28T04:27:39.233Z,999.67
2019-05-28T04:28:39.240Z,999.69
2019-05-28T04:29:39.250Z,999.66
2019-05-28T04:30:39.253Z,999.65
2019-05-28T04:31:39.203Z,999.70
2019-05-28T04:32:41.381Z,999.69
2019-05-28T04:33:39.172Z,999.68
2019-05-28T04:34:39.283Z,999.69
2019-05-28T04:35:39.176Z,999.67
2019-05-28T04:36:39.142Z,999.69
2019-05-28T04:37:39.131Z,999.62
2019-05-28T04:38:39.114Z,999.62
2019-05-28T04:39:39.102Z,999.62
2019-05-28T04:40:39.121Z,999.64
2019-05-28T04:41:39.213Z,999.61
2019-05-28T04:42:39.090Z,999.60
2019-05-28T04:43:39.139Z,999.62
2019-05-28T04:44:39.052Z,999.63
2019-05-28T04:45:39.064Z,999.62
2019-05-28T04:46:39.029Z,999.64
2019-05-28T04:47:39.017Z,999.64
2019-05-28T04:48:39.019Z,999.60
2019-05-28T04:49:38.991Z,999.65
2019-05-28T04:50:39.182Z,999.65
2019-05-28T04:51:39.015Z,999.62
2019-05-28T04:52:38.960Z,999.65
2019-05-28T04:53:38.956Z,999.67
2019-05-28T04:54:38.951Z,999.66
2019-05-28T04:55:38.978Z,999.69
2019-05-28T04:56:38.914Z,999.66
2019-05-28T04:57:38.910Z,999.66
2019-05-28T04:58:38.889Z,999.69
2019-05-28T04:59:38.899Z,999.68
2019-05-28T05:00:38.872Z,999.65
2019-05-28T05:01:38.911Z,999.70
2019-05-28T05:02:38.850Z,999.65
2019-05-28T05:03:38.861Z,999.67
2019-05-28T05:04:38.835Z,999.67
2019-05-28T05:05:38.831Z,999.70
2019-05-28T05:06:38.798Z,999.69
2019-05-28T05:07:38.843Z,999.68
2019-05-28T05:08:38.776Z,999.68
2019-05-28T05:09:38.769Z,999.58
2019-05-28T05:10:38.765Z,999.56
2019-05-28T05:11:38.767Z,999.56
2019-05-28T05:12:38.746Z,999.59
2019-05-28T05:13:38.734Z,999.61
2019-05-28T05:14:38.708Z,999.63
2019-05-28T05:15:38.708Z,999.58
2019-05-28T05:16:38.715Z,999.56
2019-05-28T05:17:38.683Z,999.59
2019-05-28T05:18:38.720Z,999.58
2019-05-28T05:19:38.662Z,999.66
2019-05-28T05:20:38.640Z,999.64
2019-05-28T05:21:38.653Z,999.62
2019-05-28T05:22:38.634Z,999.60
2019-05-28T05:23:38.614Z,999.65
2019-05-28T05:24:38.619Z,999.61
2019-05-28T05:25:38.584Z,999.64
2019-05-28T05:26:38.587Z,999.61
2019-05-28T05:27:38.581Z,999.60
2019-05-28T05:28:38.561Z,999.66
2019-05-28T05:29:38.625Z,999.62
2019-05-28T05:30:38.580Z,999.59
2019-05-28T05:31:38.540Z,999.63
2019-05-28T05:32:38.519Z,999.67
2019-05-28T05:33:38.508Z,999.65
2019-05-28T05:34:38.509Z,999.67
2019-05-28T05:35:38.514Z,999.63
2019-05-28T05:36:38.483Z,999.70
2019-05-28T05:37:38.469Z,999.66
2019-05-28T05:38:38.437Z,999.63
2019-05-28T05:39:38.437Z,999.64
2019-05-28T05:40:38.435Z,999.62
2019-05-28T05:41:38.451Z,999.66
2019-05-28T05:42:38.411Z,999.68
2019-05-28T05:43:38.398Z,999.63
2019-05-28T05:44:38.381Z,999.67
2019-05-28T05:45:38.388Z,999.67
2019-05-28T05:46:38.359Z,999.69
2019-05-28T05:47:38.675Z,999.69
2019-05-28T05:48:38.331Z,999.66
2019-05-28T05:49:38.329Z,999.67
2019-05-28T05:50:38.316Z,999.68
2019-05-28T05:51:38.315Z,999.68
2019-05-28T05:52:38.289Z,999.68
2019-05-28T05:53:38.299Z,999.76
2019-05-28T05:54:38.294Z,999.76
2019-05-28T05:55:38.285Z,999.75
2019-05-28T05:56:38.312Z,999.81
2019-05-28T05:57:38.252Z,999.75
2019-05-28T05:58:38.243Z,999.76
2019-05-28T05:59:38.218Z,999.74
2019-05-28T06:00:38.213Z,999.77
2019-05-28T06:01:38.194Z,999.76
2019-05-28T06:02:38.190Z,999.75
2019-05-28T06:03:40.653Z,999.76
2019-05-28T06:04:38.159Z,999.82
2019-05-28T06:05:38.152Z,999.82
2019-05-28T06:06:38.145Z,999.79
2019-05-28T06:07:38.159Z,999.83
2019-05-28T06:08:39.162Z,999.83
2019-05-28T06:09:38.117Z,999.82
2019-05-28T06:10:38.101Z,999.81
2019-05-28T06:11:38.092Z,999.77
2019-05-28T06:12:38.072Z,999.80
2019-05-28T06:13:38.072Z,999.80
2019-05-28T06:14:38.270Z,999.78
2019-05-28T06:15:38.061Z,999.84
2019-05-28T06:16:38.048Z,999.83
2019-05-28T06:17:38.018Z,999.84
2019-05-28T06:18:37.999Z,999.84
2019-05-28T06:19:37.995Z,999.85
2019-05-28T06:20:38.010Z,999.87
2019-05-28T06:21:37.968Z,999.90
2019-05-28T06:22:37.962Z,999.85
2019-05-28T06:23:37.937Z,999.86
2019-05-28T06:24:37.935Z,999.86
2019-05-28T06:25:37.940Z,999.88
2019-05-28T06:26:37.909Z,999.89
2019-05-28T06:27:37.946Z,999.89
2019-05-28T06:28:37.916Z,999.82
2019-05-28T06:29:37.890Z,999.87
2019-05-28T06:30:37.881Z,999.86
2019-05-28T06:31:37.874Z,999.90
2019-05-28T06:32:38.651Z,999.94
2019-05-28T06:33:37.839Z,999.88
2019-05-28T06:34:37.843Z,999.86
2019-05-28T06:35:37.831Z,999.86
2019-05-28T06:36:37.818Z,999.88
2019-05-28T06:37:37.797Z,999.83
2019-05-28T06:38:37.785Z,999.80
2019-05-28T06:39:37.805Z,999.82
2019-05-28T06:40:37.753Z,999.78
2019-05-28T06:41:37.752Z,999.78
2019-05-28T06:42:39.706Z,999.80
2019-05-28T06:43:37.755Z,999.79
2019-05-28T06:44:37.768Z,999.80
2019-05-28T06:45:37.703Z,999.81
2019-05-28T06:46:37.754Z,999.80
2019-05-28T06:47:37.683Z,999.79
2019-05-28T06:48:37.659Z,999.81
2019-05-28T06:49:37.704Z,999.86
2019-05-28T06:50:37.682Z,999.86
2019-05-28T06:51:37.653Z,999.82
2019-05-28T06:52:37.622Z,999.82
2019-05-28T06:53:37.620Z,999.80
2019-05-28T06:54:37.614Z,999.87
2019-05-28T06:55:37.601Z,999.86
2019-05-28T06:56:37.582Z,999.84
2019-05-28T06:57:37.574Z,999.87
2019-05-28T06:58:39.923Z,999.92
2019-05-28T06:59:37.555Z,999.88
2019-05-28T07:00:37.575Z,999.95
2019-05-28T07:01:37.518Z,999.94
2019-05-28T07:02:37.514Z,999.94
2019-05-28T07:03:37.504Z,999.96
2019-05-28T07:04:37.492Z,999.97
2019-05-28T07:05:37.569Z,1000.00
2019-05-28T07:06:37.521Z,1000.00
2019-05-28T07:07:37.453Z,999.97
2019-05-28T07:08:37.451Z,999.97
2019-05-28T07:09:37.432Z,999.99
2019-05-28T07:10:37.429Z,1000.00
2019-05-28T07:11:37.419Z,1000.01
2019-05-28T07:12:37.427Z,1000.01
2019-05-28T07:13:37.403Z,1000.03
2019-05-28T07:14:37.388Z,1000.01
2019-05-28T07:15:37.375Z,1000.05
2019-05-28T07:16:52.202Z,1000.03
2019-05-28T07:17:38.434Z,1000.05
2019-05-28T07:18:37.343Z,1000.06
2019-05-28T07:19:37.317Z,1000.11
2019-05-28T07:20:37.305Z,1000.08
2019-05-28T07:21:37.326Z,1000.09
2019-05-28T07:22:37.302Z,1000.11
2019-05-28T07:23:37.298Z,1000.07
2019-05-28T07:24:37.284Z,1000.12
2019-05-28T07:25:37.257Z,1000.11
2019-05-28T07:26:37.253Z,1000.12
2019-05-28T07:27:37.248Z,1000.11
2019-05-28T07:28:37.267Z,1000.13
2019-05-28T07:29:37.232Z,1000.10
2019-05-28T07:30:37.256Z,1000.17
2019-05-28T07:31:37.199Z,1000.12
2019-05-28T07:32:37.198Z,1000.15
2019-05-28T07:33:37.178Z,1000.16
2019-05-28T07:34:37.268Z,1000.15
2019-05-28T07:35:45.768Z,1000.10
2019-05-28T07:36:38.194Z,1000.13
2019-05-28T07:37:37.131Z,1000.15
2019-05-28T07:38:37.127Z,1000.16
2019-05-28T07:39:37.111Z,1000.21
2019-05-28T07:40:37.117Z,1000.17
2019-05-28T07:41:37.086Z,1000.21
2019-05-28T07:42:37.074Z,1000.21
2019-05-28T07:43:37.065Z,1000.22
2019-05-28T07:44:37.054Z,1000.25
2019-05-28T07:45:37.084Z,1000.26
2019-05-28T07:46:37.029Z,1000.34
2019-05-28T07:47:37.027Z,1000.34
2019-05-28T07:48:37.004Z,1000.34
2019-05-28T07:49:37.067Z,1000.40
2019-05-28T07:50:36.988Z,1000.39
2019-05-28T07:51:36.996Z,1000.39
2019-05-28T07:52:36.962Z,1000.37
2019-05-28T07:53:40.390Z,1000.38
2019-05-28T07:54:39.335Z,1000.39
2019-05-28T07:55:36.972Z,1000.41
2019-05-28T07:56:39.644Z,1000.42
2019-05-28T07:57:36.975Z,1000.42
2019-05-28T07:58:36.897Z,1000.39
2019-05-28T07:59:36.888Z,1000.43
2019-05-28T08:00:36.863Z,1000.39
2019-05-28T08:01:36.858Z,1000.37
2019-05-28T08:02:36.882Z,1000.42
2019-05-28T08:03:36.835Z,1000.42
2019-05-28T08:04:46.772Z,1000.43
2019-05-28T08:05:37.822Z,1000.41
2019-05-28T08:06:53.477Z,1000.49
2019-05-28T08:07:37.816Z,1000.46
2019-05-28T08:08:36.778Z,1000.47
2019-05-28T08:09:36.785Z,1000.44
2019-05-28T08:10:36.753Z,1000.50
2019-05-28T08:11:36.745Z,1000.44
2019-05-28T08:12:36.737Z,1000.48
2019-05-28T08:13:40.607Z,1000.47
2019-05-28T08:14:36.724Z,1000.47
2019-05-28T08:15:36.703Z,1000.48
2019-05-28T08:16:51.731Z,1000.42
2019-05-28T08:17:37.693Z,1000.49
2019-05-28T08:18:36.722Z,1000.50
2019-05-28T08:19:36.653Z,1000.46
2019-05-28T08:20:36.653Z,1000.49
2019-05-28T08:21:36.641Z,1000.51
2019-05-28T08:22:42.328Z,1000.45
2019-05-28T08:23:37.632Z,1000.44
2019-05-28T08:24:36.629Z,1000.41
2019-05-28T08:25:46.847Z,1000.45
2019-05-28T08:26:37.614Z,1000.48
2019-05-28T08:27:36.580Z,1000.47
2019-05-28T08:28:36.646Z,1000.49
2019-05-28T08:29:36.557Z,1000.46
2019-05-28T08:30:36.560Z,1000.43
2019-05-28T08:31:36.532Z,1000.43
2019-05-28T08:32:36.521Z,1000.40
2019-05-28T08:33:36.512Z,1000.36
2019-05-28T08:34:36.570Z,1000.31
2019-05-28T08:35:36.554Z,1000.38
2019-05-28T08:36:36.501Z,1000.29
2019-05-28T08:37:36.478Z,1000.31
2019-05-28T08:38:36.457Z,1000.36
2019-05-28T08:39:36.453Z,1000.42
2019-05-28T08:40:36.435Z,1000.43
2019-05-28T08:41:36.451Z,1000.39
2019-05-28T08:42:36.435Z,1000.43
2019-05-28T08:43:36.404Z,1000.51
2019-05-28T08:44:36.406Z,1000.51
2019-05-28T08:45:36.393Z,1000.57
2019-05-28T08:46:36.396Z,1000.58
2019-05-28T08:47:36.352Z,1000.50
2019-05-28T08:48:36.345Z,1000.46
2019-05-28T08:49:36.345Z,1000.45
2019-05-28T08:50:36.327Z,1000.42
2019-05-28T08:51:36.309Z,1000.42
2019-05-28T08:52:36.356Z,1000.33
2019-05-28T08:53:36.286Z,1000.41
2019-05-28T08:54:36.283Z,1000.28
2019-05-28T08:55:36.289Z,1000.27
2019-05-28T08:56:36.254Z,1000.35
2019-05-28T08:57:36.315Z,1000.35
2019-05-28T08:58:36.256Z,1000.35
2019-05-28T08:59:36.229Z,1000.32
2019-05-28T09:00:36.213Z,1000.38
2019-05-28T09:01:36.206Z,1000.32
2019-05-28T09:02:36.197Z,1000.41
2019-05-28T09:03:36.203Z,1000.39
2019-05-28T09:04:36.182Z,1000.40
2019-05-28T09:05:36.165Z,1000.45
2019-05-28T09:06:36.222Z,1000.45
2019-05-28T09:07:36.133Z,1000.44
2019-05-28T09:08:39.670Z,1000.53
2019-05-28T09:09:36.126Z,1000.55
2019-05-28T09:10:36.105Z,1000.56
2019-05-28T09:11:36.093Z,1000.55
2019-05-28T09:12:36.088Z,1000.46
2019-05-28T09:13:36.080Z,1000.46
2019-05-28T09:14:54.907Z,1000.46
2019-05-28T09:15:37.042Z,1000.46
2019-05-28T09:16:36.032Z,1000.47
2019-05-28T09:17:36.024Z,1000.49
2019-05-28T09:18:36.022Z,1000.49
2019-05-28T09:19:36.028Z,1000.51
2019-05-28T09:20:36.001Z,1000.50
2019-05-28T09:21:35.987Z,1000.53
2019-05-28T09:22:35.976Z,1000.59
2019-05-28T09:23:35.966Z,1000.58
2019-05-28T09:24:35.959Z,1000.57
2019-05-28T09:25:35.955Z,1000.62
2019-05-28T09:26:35.925Z,1000.61
2019-05-28T09:27:35.940Z,1000.63
2019-05-28T09:28:35.904Z,1000.62
2019-05-28T09:29:35.918Z,1000.60
2019-05-28T09:30:35.887Z,1000.65
2019-05-28T09:31:35.879Z,1000.63
2019-05-28T09:32:35.872Z,1000.61
2019-05-28T09:33:35.849Z,1000.63
2019-05-28T09:34:35.855Z,1000.61
2019-05-28T09:35:44.596Z,1000.65
2019-05-28T09:36:36.819Z,1000.62
2019-05-28T09:37:35.806Z,1000.66
2019-05-28T09:38:35.790Z,1000.69
2019-05-28T09:39:35.785Z,1000.73
2019-05-28T09:40:49.033Z,1000.75
2019-05-28T09:41:36.769Z,1000.73
2019-05-28T09:42:35.758Z,1000.69
2019-05-28T09:43:35.761Z,1000.71
2019-05-28T09:44:35.729Z,1000.74
2019-05-28T09:45:35.769Z,1000.72
2019-05-28T09:46:35.708Z,1000.70
2019-05-28T09:47:35.708Z,1000.77
2019-05-28T09:48:35.692Z,1000.85
2019-05-28T09:49:35.699Z,1000.79
2019-05-28T09:50:35.667Z,1000.82
2019-05-28T09:51:35.721Z,1000.76
2019-05-28T09:52:52.561Z,1000.81
2019-05-28T09:53:36.639Z,1000.78
2019-05-28T09:54:35.627Z,1000.81
2019-05-28T09:55:35.672Z,1000.75
2019-05-28T09:56:35.608Z,1000.71
2019-05-28T09:57:46.887Z,1000.68
2019-05-28T09:58:36.616Z,1000.61
2019-05-28T09:59:41.422Z,1000.66
2019-05-28T10:00:36.551Z,1000.65
2019-05-28T10:01:37.231Z,1000.66
2019-05-28T10:02:35.551Z,1000.62
2019-05-28T10:03:35.522Z,1000.64
2019-05-28T10:04:47.901Z,1000.68
2019-05-28T10:05:36.504Z,1000.64
2019-05-28T10:06:37.424Z,1000.65
2019-05-28T10:07:35.474Z,1000.67
2019-05-28T10:08:35.465Z,1000.70
2019-05-28T10:09:35.454Z,1000.69
2019-05-28T10:10:35.452Z,1000.63
2019-05-28T10:11:35.440Z,1000.63
2019-05-28T10:12:35.445Z,1000.66
2019-05-28T10:13:39.723Z,1000.63
2019-05-28T10:14:36.437Z,1000.61
2019-05-28T10:15:35.407Z,1000.64
2019-05-28T10:16:35.375Z,1000.63
2019-05-28T10:17:35.376Z,1000.67
2019-05-28T10:18:35.374Z,1000.77
2019-05-28T10:19:35.346Z,1000.81
2019-05-28T10:20:37.916Z,1000.90
2019-05-28T10:21:35.327Z,1000.83
2019-05-28T10:22:35.337Z,1000.79
2019-05-28T10:23:35.317Z,1000.83
2019-05-28T10:24:35.304Z,1000.72
2019-05-28T10:25:35.282Z,1000.81
2019-05-28T10:26:35.281Z,1000.73
2019-05-28T10:27:35.269Z,1000.98
2019-05-28T10:28:35.272Z,1000.90
2019-05-28T10:29:35.238Z,1000.72
2019-05-28T10:30:35.239Z,1000.77
2019-05-28T10:31:35.217Z,1000.81
2019-05-28T10:32:35.208Z,1000.88
2019-05-28T10:33:35.196Z,1000.94
2019-05-28T10:34:35.185Z,1000.80
2019-05-28T10:35:35.187Z,1000.81
2019-05-28T10:36:37.813Z,1000.73
2019-05-28T10:37:35.153Z,1001.06
2019-05-28T10:38:35.151Z,1001.06
2019-05-28T10:39:35.125Z,1001.11
2019-05-28T10:40:35.147Z,1001.07
2019-05-28T10:41:35.111Z,1001.06
2019-05-28T10:42:35.117Z,1000.95
2019-05-28T10:43:35.103Z,1000.88
2019-05-28T10:44:35.073Z,1000.83
2019-05-28T10:45:35.099Z,1000.80
2019-05-28T10:46:35.058Z,1000.86
2019-05-28T10:47:35.061Z,1001.10
2019-05-28T10:48:35.028Z,1001.20
2019-05-28T10:49:35.021Z,1001.23
2019-05-28T10:50:35.064Z,1001.18
2019-05-28T10:51:34.998Z,1001.02
2019-05-28T10:52:34.991Z,1000.70
2019-05-28T10:53:34.986Z,1000.75
2019-05-28T10:54:34.984Z,1001.02
2019-05-28T10:55:34.958Z,1001.08
2019-05-28T10:56:34.955Z,1001.32
2019-05-28T10:57:34.937Z,1000.83
2019-05-28T10:58:34.943Z,1001.28
2019-05-28T10:59:34.947Z,1000.79
2019-05-28T11:00:34.897Z,1001.24
2019-05-28T11:01:34.908Z,1001.09
2019-05-28T11:02:34.880Z,1000.99
2019-05-28T11:03:34.868Z,1000.81
2019-05-28T11:04:34.890Z,1000.76
2019-05-28T11:05:34.889Z,1000.73
2019-05-28T11:06:50.585Z,1000.82
2019-05-28T11:07:35.822Z,1000.80
2019-05-28T11:08:34.816Z,1000.82
2019-05-28T11:09:34.806Z,1000.77
2019-05-28T11:10:34.806Z,1000.74
2019-05-28T11:11:34.817Z,1000.70
2019-05-28T11:12:34.777Z,1000.81
2019-05-28T11:13:34.763Z,1000.79
2019-05-28T11:14:34.757Z,1000.93
2019-05-28T11:15:34.739Z,1000.95
2019-05-28T11:16:34.745Z,1000.95
2019-05-28T11:17:34.786Z,1000.81
2019-05-28T11:18:34.708Z,1000.74
2019-05-28T11:19:34.762Z,1000.71
2019-05-28T11:20:34.690Z,1000.83
2019-05-28T11:21:34.684Z,1000.76
2019-05-28T11:22:34.676Z,1000.76
2019-05-28T11:23:34.682Z,1000.71
2019-05-28T11:24:34.652Z,1000.74
2019-05-28T11:25:34.651Z,1000.69
2019-05-28T11:26:34.625Z,1000.69
2019-05-28T11:27:37.210Z,1000.71
2019-05-28T11:28:34.625Z,1000.70
2019-05-28T11:29:34.592Z,1000.67
2019-05-28T11:30:34.574Z,1000.66
2019-05-28T11:31:34.565Z,1000.63
2019-05-28T11:32:34.568Z,1000.67
2019-05-28T11:33:34.546Z,1000.67
2019-05-28T11:34:34.583Z,1000.68
2019-05-28T11:35:34.532Z,1000.63
2019-05-28T11:36:34.508Z,1000.74
2019-05-28T11:37:34.500Z,1000.72
2019-05-28T11:38:34.496Z,1000.66
2019-05-28T11:39:34.502Z,1000.69
2019-05-28T11:40:34.476Z,1000.69
2019-05-28T11:41:42.110Z,1000.67
2019-05-28T11:42:35.445Z,1000.70
2019-05-28T11:43:34.443Z,1000.77
2019-05-28T11:44:34.436Z,1000.64
2019-05-28T11:45:34.411Z,1000.64
2019-05-28T11:46:34.417Z,1000.66
2019-05-28T11:47:34.389Z,1000.63
2019-05-28T11:48:34.385Z,1000.70
2019-05-28T11:49:34.397Z,1000.63
2019-05-28T11:50:34.400Z,1000.63
2019-05-28T11:51:34.366Z,1000.70
2019-05-28T11:52:34.338Z,1000.75
2019-05-28T11:53:36.811Z,1000.72
2019-05-28T11:54:34.751Z,1000.71
2019-05-28T11:55:34.310Z,1000.82
2019-05-28T11:56:34.304Z,1000.76
2019-05-28T11:57:34.276Z,1000.82
2019-05-28T11:58:34.278Z,1000.85
2019-05-28T11:59:34.278Z,1000.82
2019-05-28T12:00:34.265Z,1000.87
2019-05-28T12:01:35.533Z,1000.87
2019-05-28T12:02:34.228Z,1000.95
2019-05-28T12:03:34.273Z,1000.91
2019-05-28T12:04:34.212Z,1000.91
2019-05-28T12:05:34.253Z,1000.94
2019-05-28T12:06:38.140Z,1000.95
2019-05-28T12:07:34.207Z,1000.93
2019-05-28T12:08:34.181Z,1000.85
2019-05-28T12:09:34.185Z,1000.78
2019-05-28T12:10:34.145Z,1000.74
2019-05-28T12:11:34.145Z,1000.73
2019-05-28T12:12:34.134Z,1000.76
2019-05-28T12:13:34.141Z,1000.77
2019-05-28T12:14:34.131Z,1000.78
2019-05-28T12:15:34.085Z,1000.75
2019-05-28T12:16:34.100Z,1000.82
2019-05-28T12:17:42.635Z,1000.81
2019-05-28T12:18:35.064Z,1000.76